createdAt,value
2023-04-04T00:00:53.495Z,51.30
2023-04-04T00:03:21.782Z,51.22
2023-04-04T00:05:51.831Z,51.29
2023-04-04T00:08:20.231Z,51.44
2023-04-04T00:10:48.361Z,51.56
2023-04-04T00:13:16.562Z,51.49
2023-04-04T00:15:44.727Z,51.49
2023-04-04T00:18:12.910Z,51.51
2023-04-04T00:20:41.526Z,51.64
2023-04-04T00:23:11.290Z,51.56
2023-04-04T00:25:39.473Z,51.57
2023-04-04T00:28:07.594Z,51.65
2023-04-04T00:30:35.834Z,51.52
2023-04-04T00:33:04.658Z,51.49
2023-04-04T00:35:33.551Z,51.56
2023-04-04T00:38:01.894Z,51.54
2023-04-04T00:40:30.288Z,51.42
2023-04-04T00:43:00.598Z,51.52
2023-04-04T00:45:28.911Z,51.39
2023-04-04T00:47:58.831Z,51.55
2023-04-04T00:50:27.095Z,51.50
2023-04-04T00:52:56.463Z,51.54
2023-04-04T00:55:25.871Z,51.31
2023-04-04T00:57:54.478Z,51.43
2023-04-04T01:00:22.928Z,51.11
2023-04-04T01:02:51.629Z,51.02
2023-04-04T01:05:19.731Z,50.99
2023-04-04T01:07:48.511Z,50.92
2023-04-04T01:10:17.331Z,50.93
2023-04-04T01:12:45.831Z,50.93
2023-04-04T01:15:14.255Z,50.87
2023-04-04T01:17:43.776Z,50.79
2023-04-04T01:20:16.245Z,50.89
2023-04-04T01:22:51.117Z,50.94
2023-04-04T01:25:27.910Z,50.98
2023-04-04T01:27:59.337Z,51.02
2023-04-04T01:30:32.258Z,51.00
2023-04-04T01:33:11.059Z,51.08
2023-04-04T01:35:50.796Z,51.07
2023-04-04T01:38:49.731Z,50.94
2023-04-04T01:41:20.565Z,50.89
2023-04-04T01:43:56.256Z,51.06
2023-04-04T01:46:25.827Z,50.89
2023-04-04T01:48:54.058Z,50.94
2023-04-04T01:51:27.168Z,50.82
2023-04-04T01:53:55.861Z,50.84
2023-04-04T01:56:24.798Z,50.99
2023-04-04T01:58:54.042Z,51.02
2023-04-04T02:01:22.318Z,51.06
2023-04-04T02:03:50.788Z,50.97
2023-04-04T02:06:19.691Z,50.86
2023-04-04T02:08:48.264Z,50.83
2023-04-04T02:11:17.684Z,50.73
2023-04-04T02:13:46.455Z,50.85
2023-04-04T02:16:16.826Z,50.88
2023-04-04T02:18:45.166Z,50.90
2023-04-04T02:21:13.733Z,50.87
2023-04-04T02:23:41.870Z,50.95
2023-04-04T02:26:10.052Z,50.90
2023-04-04T02:28:39.909Z,51.09
2023-04-04T02:31:07.989Z,51.04
2023-04-04T02:33:36.464Z,50.91
2023-04-04T02:36:06.393Z,50.95
2023-04-04T02:38:34.796Z,50.93
2023-04-04T02:41:05.994Z,51.15
2023-04-04T02:43:34.364Z,51.18
2023-04-04T02:46:14.354Z,51.20
2023-04-04T02:48:47.263Z,51.16
2023-04-04T02:51:15.903Z,51.14
2023-04-04T02:53:44.118Z,51.28
2023-04-04T02:56:20.130Z,51.34
2023-04-04T02:58:48.655Z,51.25
2023-04-04T03:01:16.895Z,51.32
2023-04-04T03:03:45.522Z,51.30
2023-04-04T03:06:15.161Z,51.20
2023-04-04T03:08:43.404Z,51.14
2023-04-04T03:11:12.217Z,51.19
2023-04-04T03:13:40.867Z,51.17
2023-04-04T03:16:08.976Z,51.31
2023-04-04T03:18:45.443Z,51.23
2023-04-04T03:21:14.195Z,51.21
2023-04-04T03:23:43.218Z,51.32
2023-04-04T03:26:11.729Z,51.21
2023-04-04T03:28:39.885Z,51.24
2023-04-04T03:31:08.278Z,51.30
2023-04-04T03:33:40.126Z,51.47
2023-04-04T03:36:14.382Z,51.37
2023-04-04T03:38:43.041Z,51.54
2023-04-04T03:41:11.714Z,51.45
2023-04-04T03:43:40.027Z,51.40
2023-04-04T03:46:09.239Z,51.48
2023-04-04T03:48:37.504Z,51.44
2023-04-04T03:51:08.090Z,51.46
2023-04-04T03:53:37.449Z,51.46
2023-04-04T03:56:05.655Z,51.51
2023-04-04T03:58:36.435Z,51.41
2023-04-04T04:01:04.941Z,51.41
2023-04-04T04:03:33.292Z,51.32
2023-04-04T04:06:01.641Z,51.17
2023-04-04T04:08:29.762Z,51.08
2023-04-04T04:11:04.283Z,51.17
2023-04-04T04:13:36.386Z,51.23
2023-04-04T04:16:05.360Z,51.09
2023-04-04T04:18:34.227Z,51.08
2023-04-04T04:21:04.300Z,51.22
2023-04-04T04:23:33.379Z,51.09
2023-04-04T04:26:01.591Z,51.24
2023-04-04T04:28:33.815Z,51.11
2023-04-04T04:31:08.534Z,51.19
2023-04-04T04:33:42.789Z,51.21
2023-04-04T04:36:11.660Z,51.33
2023-04-04T04:38:57.735Z,51.56
2023-04-04T04:41:29.486Z,51.67
2023-04-04T04:43:57.814Z,51.85
2023-04-04T04:46:27.073Z,51.89
2023-04-04T04:48:55.279Z,52.03
2023-04-04T04:51:27.568Z,52.16
2023-04-04T04:53:57.064Z,52.30
2023-04-04T04:56:25.527Z,52.29
2023-04-04T04:58:55.071Z,52.43
2023-04-04T05:01:26.710Z,52.48
2023-04-04T05:03:56.834Z,52.51
2023-04-04T05:06:31.573Z,52.70
2023-04-04T05:09:00.219Z,52.68
2023-04-04T05:11:34.826Z,52.72
2023-04-04T05:14:04.005Z,52.87
2023-04-04T05:16:36.487Z,52.92
2023-04-04T05:19:05.724Z,52.99
2023-04-04T05:21:38.537Z,53.01
2023-04-04T05:24:08.358Z,53.13
2023-04-04T05:26:38.256Z,53.17
2023-04-04T05:29:07.180Z,53.20
2023-04-04T05:31:35.745Z,53.21
2023-04-04T05:34:10.036Z,53.34
2023-04-04T05:36:39.655Z,53.44
2023-04-04T05:39:08.091Z,53.51
2023-04-04T05:41:40.802Z,53.62
2023-04-04T05:44:27.582Z,53.73
2023-04-04T05:46:57.300Z,53.61
2023-04-04T05:49:25.921Z,53.53
2023-04-04T05:51:59.482Z,53.70
2023-04-04T05:54:28.467Z,53.57
2023-04-04T05:56:57.585Z,53.63
2023-04-04T05:59:38.985Z,53.60
2023-04-04T06:02:08.458Z,53.76
2023-04-04T06:04:41.192Z,53.76
2023-04-04T06:07:11.563Z,53.83
2023-04-04T06:09:40.782Z,53.68
2023-04-04T06:12:09.369Z,53.79
2023-04-04T06:14:37.968Z,53.76
2023-04-04T06:17:07.624Z,53.74
2023-04-04T06:19:36.833Z,53.82
2023-04-04T06:22:04.931Z,53.93
2023-04-04T06:24:37.022Z,53.82
2023-04-04T06:27:06.736Z,53.84
2023-04-04T06:29:37.451Z,53.91
2023-04-04T06:32:07.590Z,54.04
2023-04-04T06:34:39.423Z,54.09
2023-04-04T06:37:07.993Z,54.17
2023-04-04T06:39:50.606Z,54.06
2023-04-04T06:42:26.085Z,54.04
2023-04-04T06:44:54.915Z,54.14
2023-04-04T06:47:23.107Z,54.18
2023-04-04T06:49:51.587Z,54.27
2023-04-04T06:52:20.488Z,54.33
2023-04-04T06:54:48.699Z,54.43
2023-04-04T06:57:18.406Z,54.47
2023-04-04T06:59:46.657Z,54.46
2023-04-04T07:02:14.726Z,54.34
2023-04-04T07:04:43.166Z,54.66
2023-04-04T07:07:12.427Z,54.45
2023-04-04T07:09:40.499Z,54.50
2023-04-04T07:12:08.609Z,54.61
2023-04-04T07:14:37.161Z,54.56
2023-04-04T07:17:13.685Z,54.38
2023-04-04T07:19:49.838Z,54.31
2023-04-04T07:22:18.104Z,54.36
2023-04-04T07:24:46.341Z,54.17
2023-04-04T07:27:16.049Z,54.19
2023-04-04T07:29:44.129Z,54.19
2023-04-04T07:32:12.481Z,54.23
2023-04-04T07:34:41.842Z,54.30
2023-04-04T07:37:09.902Z,54.19
2023-04-04T07:39:38.409Z,54.22
2023-04-04T07:42:06.846Z,54.14
2023-04-04T07:44:35.108Z,54.30
2023-04-04T07:47:09.962Z,54.15
2023-04-04T07:49:39.030Z,54.29
2023-04-04T07:52:07.308Z,54.18
2023-04-04T07:54:36.298Z,54.12
2023-04-04T07:57:10.238Z,54.08
2023-04-04T07:59:38.407Z,53.66
2023-04-04T08:02:07.392Z,53.55
2023-04-04T08:04:35.757Z,53.53
2023-04-04T08:07:04.086Z,53.68
2023-04-04T08:09:34.596Z,53.56
2023-04-04T08:12:03.635Z,53.64
2023-04-04T08:14:31.951Z,53.51
2023-04-04T08:17:00.282Z,53.00
2023-04-04T08:19:28.448Z,53.11
2023-04-04T08:21:56.855Z,53.00
2023-04-04T08:24:27.041Z,52.86
2023-04-04T08:27:04.498Z,52.85
2023-04-04T08:29:34.820Z,52.68
2023-04-04T08:32:03.318Z,52.63
2023-04-04T08:34:32.143Z,52.17
2023-04-04T08:37:00.480Z,52.42
2023-04-04T08:39:28.701Z,52.45
2023-04-04T08:42:02.903Z,52.32
2023-04-04T08:44:32.888Z,52.19
2023-04-04T08:47:05.527Z,51.97
2023-04-04T08:49:38.241Z,51.90
2023-04-04T08:52:07.773Z,52.07
2023-04-04T08:54:39.116Z,52.17
2023-04-04T08:57:08.603Z,52.25
2023-04-04T08:59:37.440Z,52.15
2023-04-04T09:02:09.748Z,52.10
2023-04-04T09:04:39.605Z,52.08
2023-04-04T09:07:09.310Z,51.95
2023-04-04T09:09:39.318Z,51.81
2023-04-04T09:12:08.416Z,51.92
2023-04-04T09:14:39.990Z,52.29
2023-04-04T09:17:10.981Z,52.07
2023-04-04T09:19:39.365Z,52.14
2023-04-04T09:22:09.183Z,52.15
2023-04-04T09:24:41.899Z,52.18
2023-04-04T09:27:11.637Z,52.22
2023-04-04T09:29:41.245Z,52.34
2023-04-04T09:32:10.529Z,52.14
2023-04-04T09:34:38.899Z,52.07
2023-04-04T09:37:07.558Z,51.95
2023-04-04T09:39:40.488Z,52.01
2023-04-04T09:42:08.974Z,51.96
2023-04-04T09:44:37.219Z,51.85
2023-04-04T09:50:01.073Z,51.86
2023-04-04T09:52:36.042Z,51.77
2023-04-04T09:55:06.656Z,51.63
2023-04-04T09:57:38.038Z,51.58
2023-04-04T10:00:11.324Z,51.58
2023-04-04T10:02:47.058Z,51.53
2023-04-04T10:05:16.862Z,51.47
2023-04-04T10:07:45.006Z,51.47
2023-04-04T10:10:14.023Z,51.68
2023-04-04T10:12:46.990Z,51.53
2023-04-04T10:15:16.632Z,51.57
2023-04-04T10:17:45.804Z,51.33
2023-04-04T10:20:14.161Z,51.30
2023-04-04T10:22:44.990Z,51.45
2023-04-04T10:25:14.334Z,51.36
2023-04-04T10:27:42.422Z,51.36
2023-04-04T10:30:11.392Z,51.18
2023-04-04T10:33:02.627Z,51.21
2023-04-04T10:35:31.957Z,51.20
2023-04-04T10:38:03.088Z,51.07
2023-04-04T10:40:35.973Z,50.95
2023-04-04T10:43:05.861Z,50.89
2023-04-04T10:45:40.661Z,50.85
2023-04-04T10:48:10.641Z,50.90
2023-04-04T10:50:39.547Z,51.03
2023-04-04T10:53:08.774Z,50.96
2023-04-04T10:55:39.183Z,50.82
2023-04-04T10:58:09.005Z,50.72
2023-04-04T11:00:51.950Z,50.70
2023-04-04T11:03:20.331Z,50.58
2023-04-04T11:05:51.167Z,50.81
2023-04-04T11:08:27.420Z,50.73
2023-04-04T11:10:57.625Z,50.67
2023-04-04T11:13:27.334Z,50.62
2023-04-04T11:15:58.131Z,50.53
2023-04-04T11:18:33.991Z,50.66
2023-04-04T11:21:05.381Z,50.36
2023-04-04T11:24:15.929Z,50.52
2023-04-04T11:26:46.197Z,50.45
2023-04-04T11:29:22.427Z,50.44
2023-04-04T11:31:51.526Z,50.29
2023-04-04T11:34:33.326Z,50.27
2023-04-04T11:37:17.942Z,50.41
2023-04-04T11:39:59.162Z,50.22
2023-04-04T11:42:34.440Z,49.98
2023-04-04T11:45:10.378Z,49.96
2023-04-04T11:47:39.395Z,49.97
2023-04-04T11:50:10.183Z,49.62
2023-04-04T11:52:40.988Z,49.63
2023-04-04T11:55:20.093Z,49.69
2023-04-04T11:57:51.623Z,49.58
2023-04-04T12:00:47.124Z,48.66
2023-04-04T12:03:21.922Z,48.72
2023-04-04T12:05:50.268Z,49.07
2023-04-04T12:08:19.118Z,48.71
2023-04-04T12:10:47.251Z,48.13
2023-04-04T12:13:16.487Z,48.12
2023-04-04T12:15:45.307Z,48.46
2023-04-04T12:18:22.176Z,48.32
2023-04-04T12:20:54.335Z,48.20
2023-04-04T12:23:22.478Z,48.02
2023-04-04T12:25:54.943Z,48.22
2023-04-04T12:28:23.557Z,48.40
2023-04-04T12:30:52.184Z,48.15
2023-04-04T12:33:21.334Z,48.15
2023-04-04T12:35:53.726Z,48.06
2023-04-04T12:38:21.862Z,48.00
2023-04-04T12:40:51.535Z,48.26
2023-04-04T12:43:21.014Z,48.26
2023-04-04T12:45:54.759Z,48.21
2023-04-04T12:48:29.075Z,48.09
2023-04-04T12:50:59.289Z,48.11
2023-04-04T12:53:30.046Z,48.10
2023-04-04T12:56:05.280Z,47.65
2023-04-04T12:58:35.996Z,47.45
2023-04-04T13:01:07.145Z,47.62
2023-04-04T13:03:37.990Z,47.49
2023-04-04T13:06:16.303Z,47.46
2023-04-04T13:08:54.406Z,47.57
2023-04-04T13:11:22.922Z,47.67
2023-04-04T13:14:04.366Z,47.61
2023-04-04T13:16:37.373Z,47.80
2023-04-04T13:19:05.721Z,47.66
2023-04-04T13:21:35.250Z,47.60
2023-04-04T13:24:04.275Z,47.50
2023-04-04T13:26:32.687Z,47.43
2023-04-04T13:29:01.000Z,47.26
2023-04-04T13:31:29.358Z,47.10
2023-04-04T13:33:57.545Z,47.02
2023-04-04T13:36:28.546Z,47.08
2023-04-04T13:38:57.203Z,46.79
2023-04-04T13:41:25.474Z,46.61
2023-04-04T13:43:53.580Z,46.57
2023-04-04T13:46:21.673Z,46.35
2023-04-04T13:48:49.984Z,46.48
2023-04-04T13:51:18.050Z,46.38
2023-04-04T13:53:46.261Z,46.66
2023-04-04T13:56:18.428Z,46.25
2023-04-04T13:58:48.255Z,46.42
2023-04-04T14:01:16.710Z,46.34
2023-04-04T14:03:44.897Z,45.92
2023-04-04T14:06:13.059Z,46.12
2023-04-04T14:08:41.625Z,46.04
2023-04-04T14:11:09.677Z,45.68
2023-04-04T14:13:37.796Z,45.67
2023-04-04T14:16:08.125Z,45.51
2023-04-04T14:18:36.343Z,45.61
2023-04-04T14:21:05.477Z,45.78
2023-04-04T14:23:33.619Z,45.27
2023-04-04T14:26:01.786Z,45.19
2023-04-04T14:28:30.120Z,44.99
2023-04-04T14:30:58.160Z,45.19
2023-04-04T14:33:26.411Z,45.25
2023-04-04T14:35:54.487Z,45.46
2023-04-04T14:38:23.007Z,45.85
2023-04-04T14:40:51.046Z,45.66
2023-04-04T14:43:19.580Z,45.36
2023-04-04T14:45:48.254Z,45.85
2023-04-04T14:48:16.307Z,45.81
2023-04-04T14:50:46.040Z,45.79
2023-04-04T14:53:14.321Z,45.92
2023-04-04T14:55:42.652Z,45.57
2023-04-04T14:58:10.939Z,45.67
2023-04-04T15:00:39.659Z,45.63
2023-04-04T15:03:08.522Z,45.58
2023-04-04T15:05:36.805Z,45.49
2023-04-04T15:08:05.021Z,45.48
2023-04-04T15:10:33.248Z,45.35
2023-04-04T15:13:01.333Z,45.65
2023-04-04T15:15:29.413Z,45.48
2023-04-04T15:17:58.692Z,45.51
2023-04-04T15:20:26.871Z,45.33
2023-04-04T15:22:55.050Z,45.30
2023-04-04T15:25:23.389Z,45.47
2023-04-04T15:27:51.479Z,45.48
2023-04-04T15:30:19.684Z,45.23
2023-04-04T15:32:47.947Z,45.07
2023-04-04T15:35:19.259Z,45.13
2023-04-04T15:37:49.119Z,45.40
2023-04-04T15:40:18.782Z,45.03
2023-04-04T15:42:48.001Z,44.88
2023-04-04T15:45:16.406Z,45.02
2023-04-04T15:47:45.173Z,45.10
2023-04-04T15:50:13.953Z,44.72
2023-04-04T15:52:42.190Z,44.35
2023-04-04T15:55:12.973Z,44.18
2023-04-04T15:57:44.573Z,44.41
2023-04-04T16:00:14.134Z,44.61
2023-04-04T16:02:42.806Z,44.50
2023-04-04T16:05:11.359Z,44.51
2023-04-04T16:07:39.498Z,44.35
2023-04-04T16:10:08.210Z,44.07
2023-04-04T16:12:36.566Z,44.39
2023-04-04T16:15:07.092Z,44.24
2023-04-04T16:17:35.351Z,44.01
2023-04-04T16:20:05.122Z,43.60
2023-04-04T16:22:33.458Z,43.56
2023-04-04T16:25:01.525Z,43.94
2023-04-04T16:27:29.817Z,43.88
2023-04-04T16:29:58.183Z,43.96
2023-04-04T16:32:26.504Z,43.92
2023-04-04T16:34:54.671Z,43.95
2023-04-04T16:37:23.387Z,44.07
2023-04-04T16:39:52.174Z,44.26
2023-04-04T16:42:20.356Z,43.93
2023-04-04T16:44:48.938Z,43.95
2023-04-04T16:47:16.991Z,44.01
2023-04-04T16:49:47.532Z,43.68
2023-04-04T16:52:16.101Z,44.18
2023-04-04T16:54:44.357Z,43.86
2023-04-04T16:57:12.470Z,43.92
2023-04-04T16:59:40.887Z,44.03
2023-04-04T17:02:09.697Z,44.30
2023-04-04T17:04:41.960Z,44.36
2023-04-04T17:07:11.012Z,44.27
2023-04-04T17:09:39.450Z,44.46
2023-04-04T17:12:08.452Z,44.41
2023-04-04T17:14:37.380Z,44.30
2023-04-04T17:17:05.943Z,44.31
2023-04-04T17:19:35.337Z,44.27
2023-04-04T17:22:03.836Z,44.53
2023-04-04T17:24:32.291Z,44.61
2023-04-04T17:27:01.616Z,44.53
2023-04-04T17:29:30.313Z,44.67
2023-04-04T17:31:58.634Z,44.73
2023-04-04T17:34:26.978Z,44.88
2023-04-04T17:36:55.775Z,44.91
2023-04-04T17:39:24.421Z,44.97
2023-04-04T17:41:53.171Z,45.12
2023-04-04T17:44:22.468Z,45.23
2023-04-04T17:46:51.196Z,45.25
2023-04-04T17:49:20.699Z,45.33
2023-04-04T17:51:50.741Z,45.38
2023-04-04T17:54:21.832Z,45.42
2023-04-04T17:56:50.475Z,45.45
2023-04-04T17:59:18.833Z,45.49
2023-04-04T18:01:47.433Z,45.73
2023-04-04T18:04:16.422Z,45.69
2023-04-04T18:06:44.581Z,45.74
2023-04-04T18:09:13.461Z,45.98
2023-04-04T18:11:42.091Z,46.00
2023-04-04T18:14:10.168Z,46.09
2023-04-04T18:16:40.846Z,46.10
2023-04-04T18:19:09.977Z,46.24
2023-04-04T18:21:38.718Z,46.25
2023-04-04T18:24:11.384Z,46.27
2023-04-04T18:26:39.754Z,46.44
2023-04-04T18:29:08.379Z,46.50
2023-04-04T18:31:36.931Z,46.58
2023-04-04T18:34:05.254Z,46.61
2023-04-04T18:36:33.356Z,46.76
2023-04-04T18:39:03.604Z,46.84
2023-04-04T18:41:32.502Z,46.95
2023-04-04T18:44:00.867Z,47.09
2023-04-04T18:46:29.597Z,47.04
2023-04-04T18:48:58.573Z,47.08
2023-04-04T18:51:26.977Z,47.26
2023-04-04T18:53:55.378Z,47.35
2023-04-04T18:56:23.525Z,47.45
2023-04-04T18:58:52.341Z,47.44
2023-04-04T19:01:21.237Z,47.45
2023-04-04T19:03:51.958Z,47.41
2023-04-04T19:06:26.941Z,47.58
2023-04-04T19:08:58.645Z,47.78
2023-04-04T19:11:32.962Z,47.77
2023-04-04T19:14:01.140Z,47.77
2023-04-04T19:16:29.540Z,47.89
2023-04-04T19:18:57.665Z,47.86
2023-04-04T19:21:26.292Z,47.97
2023-04-04T19:23:54.617Z,48.05
2023-04-04T19:26:22.703Z,48.11
2023-04-04T19:28:51.250Z,48.07
2023-04-04T19:31:22.302Z,48.18
2023-04-04T19:33:51.773Z,48.40
2023-04-04T19:36:20.055Z,48.30
2023-04-04T19:38:51.898Z,48.48
2023-04-04T19:41:33.832Z,48.42
2023-04-04T19:44:03.517Z,48.41
2023-04-04T19:46:33.228Z,48.53
2023-04-04T19:49:27.985Z,48.51
2023-04-04T19:51:58.697Z,48.55
2023-04-04T19:54:29.149Z,48.73
2023-04-04T19:57:01.074Z,48.70
2023-04-04T19:59:57.012Z,48.71
2023-04-04T20:02:31.436Z,48.71
2023-04-04T20:05:00.182Z,48.85
2023-04-04T20:07:29.778Z,48.77
2023-04-04T20:09:58.069Z,48.90
2023-04-04T20:12:33.881Z,48.91
2023-04-04T20:15:01.937Z,49.07
2023-04-04T20:17:30.110Z,49.03
2023-04-04T20:19:58.337Z,49.08
2023-04-04T20:22:26.592Z,48.99
2023-04-04T20:24:54.772Z,48.99
2023-04-04T20:27:24.415Z,49.09
2023-04-04T20:29:54.166Z,49.14
2023-04-04T20:32:22.562Z,49.13
2023-04-04T20:34:50.907Z,49.10
2023-04-04T20:37:26.277Z,49.15
2023-04-04T20:40:09.920Z,49.19
2023-04-04T20:42:40.825Z,49.16
2023-04-04T20:45:09.049Z,49.08
2023-04-04T20:47:48.912Z,49.09
2023-04-04T20:50:17.194Z,49.14
2023-04-04T20:53:03.151Z,49.15
2023-04-04T20:55:33.546Z,49.13
2023-04-04T20:58:10.262Z,48.89
2023-04-04T21:00:41.082Z,48.95
2023-04-04T21:03:31.014Z,48.62
2023-04-04T21:06:11.088Z,48.58
2023-04-04T21:08:50.717Z,48.51
2023-04-04T21:11:29.203Z,48.41
2023-04-04T21:13:57.784Z,48.46
2023-04-04T21:16:28.032Z,48.38
2023-04-04T21:19:00.877Z,48.25
2023-04-04T21:21:29.677Z,48.32
2023-04-04T21:24:00.119Z,48.31
2023-04-04T21:26:40.906Z,48.29
2023-04-04T21:29:25.354Z,48.24
2023-04-04T21:31:55.715Z,48.28
2023-04-04T21:34:25.816Z,48.06
2023-04-04T21:37:07.896Z,47.94
2023-04-04T21:39:38.700Z,48.06
2023-04-04T21:42:08.831Z,48.03
2023-04-04T21:44:38.661Z,47.98
2023-04-04T21:47:07.164Z,47.93
2023-04-04T21:49:35.218Z,48.07
2023-04-04T21:52:03.268Z,48.10
2023-04-04T21:54:31.546Z,48.23
2023-04-04T21:56:59.633Z,48.14
2023-04-04T21:59:27.874Z,48.42
2023-04-04T22:01:56.281Z,48.47
2023-04-04T22:04:24.817Z,48.50
2023-04-04T22:06:52.934Z,48.50
2023-04-04T22:09:22.720Z,48.39
2023-04-04T22:11:51.317Z,48.52
2023-04-04T22:14:19.357Z,48.48
2023-04-04T22:16:47.605Z,48.56
2023-04-04T22:19:15.887Z,48.62
2023-04-04T22:21:48.475Z,48.50
2023-04-04T22:24:18.447Z,48.55
2023-04-04T22:26:47.041Z,48.44
2023-04-04T22:29:17.462Z,48.55
2023-04-04T22:31:45.762Z,48.46
2023-04-04T22:34:15.268Z,48.48
2023-04-04T22:36:46.929Z,48.60
2023-04-04T22:39:16.558Z,48.52
2023-04-04T22:41:44.758Z,48.58
2023-04-04T22:44:12.977Z,48.60
2023-04-04T22:46:41.699Z,48.55
2023-04-04T22:49:10.227Z,48.52
2023-04-04T22:51:45.985Z,48.51
2023-04-04T22:54:18.137Z,48.49
2023-04-04T22:56:46.586Z,48.38
2023-04-04T22:59:14.764Z,48.45
2023-04-04T23:01:43.269Z,48.44
2023-04-04T23:04:11.576Z,48.58
2023-04-04T23:06:39.774Z,48.54
2023-04-04T23:09:08.409Z,48.62
2023-04-04T23:11:39.900Z,48.66
2023-04-04T23:14:09.047Z,48.57
2023-04-04T23:16:37.853Z,48.55
2023-04-04T23:19:06.243Z,48.54
2023-04-04T23:21:38.004Z,48.53
2023-04-04T23:24:07.362Z,48.52
2023-04-04T23:26:35.584Z,48.51
2023-04-04T23:29:04.048Z,48.55
2023-04-04T23:31:32.733Z,48.57
2023-04-04T23:34:01.005Z,48.46
2023-04-04T23:36:29.296Z,48.59
2023-04-04T23:38:57.875Z,48.59
2023-04-04T23:41:26.448Z,48.61
2023-04-04T23:43:54.840Z,48.60
2023-04-04T23:46:24.146Z,48.83
2023-04-04T23:48:52.365Z,48.62
2023-04-04T23:51:21.596Z,48.69
2023-04-04T23:53:49.845Z,48.72
2023-04-04T23:56:18.259Z,48.77
2023-04-04T23:58:46.360Z,48.70
